sensor_id;sensor_type;location;lat;lon;timestamp;temperature;humidity
18446;DHT22;9352;50.888;4.466;2023-04-03T00:00:07;3.70;99.90
18446;DHT22;9352;50.888;4.466;2023-04-03T00:02:34;3.70;99.90
18446;DHT22;9352;50.888;4.466;2023-04-03T00:05:01;3.60;99.90
18446;DHT22;9352;50.888;4.466;2023-04-03T00:07:28;3.60;99.90
18446;DHT22;9352;50.888;4.466;2023-04-03T00:09:56;3.60;99.90
18446;DHT22;9352;50.888;4.466;2023-04-03T00:12:23;3.60;99.90
18446;DHT22;9352;50.888;4.466;2023-04-03T00:14:50;3.60;99.90
18446;DHT22;9352;50.888;4.466;2023-04-03T00:17:16;3.60;99.90
18446;DHT22;9352;50.888;4.466;2023-04-03T00:19:43;3.50;99.90
18446;DHT22;9352;50.888;4.466;2023-04-03T00:22:10;3.50;99.90
18446;DHT22;9352;50.888;4.466;2023-04-03T00:24:37;3.50;99.90
18446;DHT22;9352;50.888;4.466;2023-04-03T00:27:05;3.50;99.90
18446;DHT22;9352;50.888;4.466;2023-04-03T00:29:32;3.50;99.90
18446;DHT22;9352;50.888;4.466;2023-04-03T00:31:59;3.50;99.90
18446;DHT22;9352;50.888;4.466;2023-04-03T00:34:26;3.50;99.90
18446;DHT22;9352;50.888;4.466;2023-04-03T00:36:53;3.50;99.90
18446;DHT22;9352;50.888;4.466;2023-04-03T00:39:20;3.50;99.90
18446;DHT22;9352;50.888;4.466;2023-04-03T00:41:47;3.50;99.90
18446;DHT22;9352;50.888;4.466;2023-04-03T00:44:21;3.50;99.90
18446;DHT22;9352;50.888;4.466;2023-04-03T00:46:48;3.50;99.90
18446;DHT22;9352;50.888;4.466;2023-04-03T00:49:16;3.50;99.90
18446;DHT22;9352;50.888;4.466;2023-04-03T00:51:43;3.50;99.90
18446;DHT22;9352;50.888;4.466;2023-04-03T00:54:10;3.60;99.90
18446;DHT22;9352;50.888;4.466;2023-04-03T00:56:37;3.60;99.90
18446;DHT22;9352;50.888;4.466;2023-04-03T00:59:06;3.60;99.90
18446;DHT22;9352;50.888;4.466;2023-04-03T01:01:37;3.60;99.90
18446;DHT22;9352;50.888;4.466;2023-04-03T01:04:04;3.60;99.90
18446;DHT22;9352;50.888;4.466;2023-04-03T01:06:34;3.60;99.90
18446;DHT22;9352;50.888;4.466;2023-04-03T01:09:03;3.60;99.90
18446;DHT22;9352;50.888;4.466;2023-04-03T01:11:30;3.60;99.90
18446;DHT22;9352;50.888;4.466;2023-04-03T01:13:57;3.60;99.90
18446;DHT22;9352;50.888;4.466;2023-04-03T01:16:24;3.60;99.90
18446;DHT22;9352;50.888;4.466;2023-04-03T01:18:52;3.60;99.90
18446;DHT22;9352;50.888;4.466;2023-04-03T01:21:47;3.50;99.90
18446;DHT22;9352;50.888;4.466;2023-04-03T01:24:27;3.50;99.90
18446;DHT22;9352;50.888;4.466;2023-04-03T01:26:58;3.50;99.90
18446;DHT22;9352;50.888;4.466;2023-04-03T01:29:25;3.50;99.90
18446;DHT22;9352;50.888;4.466;2023-04-03T01:31:55;3.50;99.90
18446;DHT22;9352;50.888;4.466;2023-04-03T01:34:23;3.50;99.90
18446;DHT22;9352;50.888;4.466;2023-04-03T01:36:50;3.50;99.90
18446;DHT22;9352;50.888;4.466;2023-04-03T01:39:17;3.40;99.90
18446;DHT22;9352;50.888;4.466;2023-04-03T01:41:45;3.40;99.90
18446;DHT22;9352;50.888;4.466;2023-04-03T01:44:11;3.40;99.90
18446;DHT22;9352;50.888;4.466;2023-04-03T01:46:38;3.30;99.90
18446;DHT22;9352;50.888;4.466;2023-04-03T01:49:08;3.30;99.90
18446;DHT22;9352;50.888;4.466;2023-04-03T01:51:35;3.20;99.90
18446;DHT22;9352;50.888;4.466;2023-04-03T01:54:02;3.20;99.90
18446;DHT22;9352;50.888;4.466;2023-04-03T01:56:30;3.20;99.90
18446;DHT22;9352;50.888;4.466;2023-04-03T01:58:57;3.20;99.90
18446;DHT22;9352;50.888;4.466;2023-04-03T02:01:24;3.20;99.90
18446;DHT22;9352;50.888;4.466;2023-04-03T02:03:51;3.20;99.90
18446;DHT22;9352;50.888;4.466;2023-04-03T02:06:19;3.10;99.90
18446;DHT22;9352;50.888;4.466;2023-04-03T02:08:46;3.20;99.90
18446;DHT22;9352;50.888;4.466;2023-04-03T02:11:13;3.10;99.90
18446;DHT22;9352;50.888;4.466;2023-04-03T02:13:40;3.10;99.90
18446;DHT22;9352;50.888;4.466;2023-04-03T02:16:08;3.10;99.90
18446;DHT22;9352;50.888;4.466;2023-04-03T02:18:36;3.00;99.90
18446;DHT22;9352;50.888;4.466;2023-04-03T02:21:03;3.00;99.90
18446;DHT22;9352;50.888;4.466;2023-04-03T02:23:32;3.00;99.90
18446;DHT22;9352;50.888;4.466;2023-04-03T02:26:06;3.00;99.90
18446;DHT22;9352;50.888;4.466;2023-04-03T02:28:33;3.00;99.90
18446;DHT22;9352;50.888;4.466;2023-04-03T02:31:01;3.00;99.90
18446;DHT22;9352;50.888;4.466;2023-04-03T02:33:28;2.90;99.90
18446;DHT22;9352;50.888;4.466;2023-04-03T02:35:55;2.90;99.90
18446;DHT22;9352;50.888;4.466;2023-04-03T02:38:22;2.90;99.90
18446;DHT22;9352;50.888;4.466;2023-04-03T02:40:50;2.90;99.90
18446;DHT22;9352;50.888;4.466;2023-04-03T02:43:18;2.90;99.90
18446;DHT22;9352;50.888;4.466;2023-04-03T02:45:45;2.80;99.90
18446;DHT22;9352;50.888;4.466;2023-04-03T02:48:12;2.80;99.90
18446;DHT22;9352;50.888;4.466;2023-04-03T02:50:40;2.80;99.90
18446;DHT22;9352;50.888;4.466;2023-04-03T02:53:07;2.80;99.90
18446;DHT22;9352;50.888;4.466;2023-04-03T02:55:34;2.70;99.90
18446;DHT22;9352;50.888;4.466;2023-04-03T02:58:02;2.70;99.90
18446;DHT22;9352;50.888;4.466;2023-04-03T03:00:30;2.70;99.90
18446;DHT22;9352;50.888;4.466;2023-04-03T03:02:57;2.60;99.90
18446;DHT22;9352;50.888;4.466;2023-04-03T03:05:23;2.60;99.90
18446;DHT22;9352;50.888;4.466;2023-04-03T03:07:50;2.60;99.90
18446;DHT22;9352;50.888;4.466;2023-04-03T03:10:18;2.50;99.90
18446;DHT22;9352;50.888;4.466;2023-04-03T03:12:45;2.50;99.90
18446;DHT22;9352;50.888;4.466;2023-04-03T03:15:13;2.50;99.90
18446;DHT22;9352;50.888;4.466;2023-04-03T03:17:41;2.50;99.90
18446;DHT22;9352;50.888;4.466;2023-04-03T03:20:08;2.50;99.90
18446;DHT22;9352;50.888;4.466;2023-04-03T03:22:35;2.50;99.90
18446;DHT22;9352;50.888;4.466;2023-04-03T03:25:03;2.40;99.90
18446;DHT22;9352;50.888;4.466;2023-04-03T03:27:30;2.40;99.90
18446;DHT22;9352;50.888;4.466;2023-04-03T03:29:57;2.40;99.90
18446;DHT22;9352;50.888;4.466;2023-04-03T03:32:25;2.50;99.90
18446;DHT22;9352;50.888;4.466;2023-04-03T03:34:52;2.40;99.90
18446;DHT22;9352;50.888;4.466;2023-04-03T03:37:19;2.40;99.90
18446;DHT22;9352;50.888;4.466;2023-04-03T03:39:46;2.40;99.90
18446;DHT22;9352;50.888;4.466;2023-04-03T03:42:13;2.40;99.90
18446;DHT22;9352;50.888;4.466;2023-04-03T03:44:40;2.40;99.90
18446;DHT22;9352;50.888;4.466;2023-04-03T03:47:07;2.30;99.90
18446;DHT22;9352;50.888;4.466;2023-04-03T03:49:37;2.40;99.90
18446;DHT22;9352;50.888;4.466;2023-04-03T03:52:04;2.40;99.90
18446;DHT22;9352;50.888;4.466;2023-04-03T03:54:31;2.30;99.90
18446;DHT22;9352;50.888;4.466;2023-04-03T03:56:58;2.30;99.90
18446;DHT22;9352;50.888;4.466;2023-04-03T03:59:25;2.30;99.90
18446;DHT22;9352;50.888;4.466;2023-04-03T04:01:51;2.30;99.90
18446;DHT22;9352;50.888;4.466;2023-04-03T04:04:18;2.30;99.90
18446;DHT22;9352;50.888;4.466;2023-04-03T04:06:47;2.30;99.90
18446;DHT22;9352;50.888;4.466;2023-04-03T04:09:14;2.20;99.90
18446;DHT22;9352;50.888;4.466;2023-04-03T04:11:41;2.20;99.90
18446;DHT22;9352;50.888;4.466;2023-04-03T04:14:07;2.20;99.90
18446;DHT22;9352;50.888;4.466;2023-04-03T04:16:35;2.20;99.90
18446;DHT22;9352;50.888;4.466;2023-04-03T04:19:02;2.20;99.90
18446;DHT22;9352;50.888;4.466;2023-04-03T04:21:29;2.20;99.90
18446;DHT22;9352;50.888;4.466;2023-04-03T04:23:57;2.20;99.90
18446;DHT22;9352;50.888;4.466;2023-04-03T04:26:24;2.20;99.90
18446;DHT22;9352;50.888;4.466;2023-04-03T04:28:51;2.20;99.90
18446;DHT22;9352;50.888;4.466;2023-04-03T04:31:18;2.20;99.90
18446;DHT22;9352;50.888;4.466;2023-04-03T04:33:45;2.20;99.90
18446;DHT22;9352;50.888;4.466;2023-04-03T04:36:12;2.20;99.90
18446;DHT22;9352;50.888;4.466;2023-04-03T04:38:40;2.20;99.90
18446;DHT22;9352;50.888;4.466;2023-04-03T04:41:08;2.30;99.90
18446;DHT22;9352;50.888;4.466;2023-04-03T04:43:35;2.30;99.90
18446;DHT22;9352;50.888;4.466;2023-04-03T04:46:03;2.30;99.90
18446;DHT22;9352;50.888;4.466;2023-04-03T04:48:31;2.30;99.90
18446;DHT22;9352;50.888;4.466;2023-04-03T04:50:58;2.30;99.90
18446;DHT22;9352;50.888;4.466;2023-04-03T04:53:25;2.30;99.90
18446;DHT22;9352;50.888;4.466;2023-04-03T04:55:52;2.30;99.90
18446;DHT22;9352;50.888;4.466;2023-04-03T04:58:20;2.30;99.90
18446;DHT22;9352;50.888;4.466;2023-04-03T05:00:47;2.30;99.90
18446;DHT22;9352;50.888;4.466;2023-04-03T05:03:14;2.30;99.90
18446;DHT22;9352;50.888;4.466;2023-04-03T05:05:41;2.30;99.90
18446;DHT22;9352;50.888;4.466;2023-04-03T05:08:08;2.30;99.90
18446;DHT22;9352;50.888;4.466;2023-04-03T05:10:35;2.30;99.90
18446;DHT22;9352;50.888;4.466;2023-04-03T05:13:02;2.30;99.90
18446;DHT22;9352;50.888;4.466;2023-04-03T05:15:30;2.30;99.90
18446;DHT22;9352;50.888;4.466;2023-04-03T05:17:57;2.40;99.90
18446;DHT22;9352;50.888;4.466;2023-04-03T05:20:24;2.50;99.90
18446;DHT22;9352;50.888;4.466;2023-04-03T05:22:51;2.50;99.90
18446;DHT22;9352;50.888;4.466;2023-04-03T05:25:17;2.60;99.90
18446;DHT22;9352;50.888;4.466;2023-04-03T05:27:44;2.90;99.90
18446;DHT22;9352;50.888;4.466;2023-04-03T05:30:12;2.80;99.90
18446;DHT22;9352;50.888;4.466;2023-04-03T05:32:41;2.80;99.90
18446;DHT22;9352;50.888;4.466;2023-04-03T05:35:08;2.80;99.90
18446;DHT22;9352;50.888;4.466;2023-04-03T05:37:36;2.80;99.90
18446;DHT22;9352;50.888;4.466;2023-04-03T05:40:03;2.70;99.90
18446;DHT22;9352;50.888;4.466;2023-04-03T05:42:30;2.80;99.90
18446;DHT22;9352;50.888;4.466;2023-04-03T05:44:58;2.80;99.90
18446;DHT22;9352;50.888;4.466;2023-04-03T05:47:25;2.80;99.90
18446;DHT22;9352;50.888;4.466;2023-04-03T05:49:53;2.80;99.90
18446;DHT22;9352;50.888;4.466;2023-04-03T05:52:22;2.80;99.90
18446;DHT22;9352;50.888;4.466;2023-04-03T05:54:49;2.90;99.90
18446;DHT22;9352;50.888;4.466;2023-04-03T05:57:16;2.90;99.90
18446;DHT22;9352;50.888;4.466;2023-04-03T05:59:44;2.90;99.90
18446;DHT22;9352;50.888;4.466;2023-04-03T06:02:13;3.00;99.90
18446;DHT22;9352;50.888;4.466;2023-04-03T06:04:40;3.00;99.90
18446;DHT22;9352;50.888;4.466;2023-04-03T06:07:11;3.00;99.90
18446;DHT22;9352;50.888;4.466;2023-04-03T06:09:39;3.00;99.90
18446;DHT22;9352;50.888;4.466;2023-04-03T06:12:06;3.10;99.90
18446;DHT22;9352;50.888;4.466;2023-04-03T06:14:33;3.10;99.90
18446;DHT22;9352;50.888;4.466;2023-04-03T06:17:00;3.10;99.90
18446;DHT22;9352;50.888;4.466;2023-04-03T06:19:27;3.10;99.90
18446;DHT22;9352;50.888;4.466;2023-04-03T06:21:54;3.20;99.90
18446;DHT22;9352;50.888;4.466;2023-04-03T06:24:23;3.20;99.90
18446;DHT22;9352;50.888;4.466;2023-04-03T06:26:51;3.30;99.90
18446;DHT22;9352;50.888;4.466;2023-04-03T06:29:18;3.30;99.90
18446;DHT22;9352;50.888;4.466;2023-04-03T06:31:46;3.30;99.90
18446;DHT22;9352;50.888;4.466;2023-04-03T06:34:14;3.30;99.90
18446;DHT22;9352;50.888;4.466;2023-04-03T06:36:41;3.40;99.90
18446;DHT22;9352;50.888;4.466;2023-04-03T06:39:09;3.50;99.90
18446;DHT22;9352;50.888;4.466;2023-04-03T06:41:39;3.60;99.90
18446;DHT22;9352;50.888;4.466;2023-04-03T06:44:06;3.60;99.90
18446;DHT22;9352;50.888;4.466;2023-04-03T06:46:37;3.70;99.90
18446;DHT22;9352;50.888;4.466;2023-04-03T06:49:04;3.70;99.90
18446;DHT22;9352;50.888;4.466;2023-04-03T06:51:33;3.80;99.90
18446;DHT22;9352;50.888;4.466;2023-04-03T06:54:02;3.80;99.90
18446;DHT22;9352;50.888;4.466;2023-04-03T06:56:29;3.90;99.90
18446;DHT22;9352;50.888;4.466;2023-04-03T06:58:57;4.00;99.90
18446;DHT22;9352;50.888;4.466;2023-04-03T07:01:26;4.10;99.90
18446;DHT22;9352;50.888;4.466;2023-04-03T07:03:54;4.10;99.90
18446;DHT22;9352;50.888;4.466;2023-04-03T07:06:21;4.10;99.90
18446;DHT22;9352;50.888;4.466;2023-04-03T07:08:48;4.20;99.90
18446;DHT22;9352;50.888;4.466;2023-04-03T07:11:16;4.30;99.90
18446;DHT22;9352;50.888;4.466;2023-04-03T07:13:43;4.40;99.90
18446;DHT22;9352;50.888;4.466;2023-04-03T07:16:11;4.40;99.90
18446;DHT22;9352;50.888;4.466;2023-04-03T07:18:39;4.40;99.90
18446;DHT22;9352;50.888;4.466;2023-04-03T07:21:05;4.50;99.90
18446;DHT22;9352;50.888;4.466;2023-04-03T07:23:32;4.50;99.90
18446;DHT22;9352;50.888;4.466;2023-04-03T07:25:59;4.60;99.90
18446;DHT22;9352;50.888;4.466;2023-04-03T07:28:27;4.70;99.90
18446;DHT22;9352;50.888;4.466;2023-04-03T07:30:59;4.70;99.90
18446;DHT22;9352;50.888;4.466;2023-04-03T07:33:27;4.70;99.90
18446;DHT22;9352;50.888;4.466;2023-04-03T07:35:54;4.80;99.90
18446;DHT22;9352;50.888;4.466;2023-04-03T07:38:21;4.90;99.90
18446;DHT22;9352;50.888;4.466;2023-04-03T07:40:49;5.00;99.90
18446;DHT22;9352;50.888;4.466;2023-04-03T07:43:18;5.00;99.90
18446;DHT22;9352;50.888;4.466;2023-04-03T07:45:46;5.10;99.90
18446;DHT22;9352;50.888;4.466;2023-04-03T07:48:15;5.20;99.90
18446;DHT22;9352;50.888;4.466;2023-04-03T07:50:44;5.20;99.90
18446;DHT22;9352;50.888;4.466;2023-04-03T07:53:11;5.30;99.90
18446;DHT22;9352;50.888;4.466;2023-04-03T07:55:39;5.30;99.90
18446;DHT22;9352;50.888;4.466;2023-04-03T07:58:09;5.40;99.90
18446;DHT22;9352;50.888;4.466;2023-04-03T08:00:37;5.50;99.90
18446;DHT22;9352;50.888;4.466;2023-04-03T08:03:04;5.60;99.90
18446;DHT22;9352;50.888;4.466;2023-04-03T08:05:36;5.70;99.90
18446;DHT22;9352;50.888;4.466;2023-04-03T08:08:05;5.80;99.90
18446;DHT22;9352;50.888;4.466;2023-04-03T08:10:32;5.90;99.90
18446;DHT22;9352;50.888;4.466;2023-04-03T08:12:59;6.00;99.90
18446;DHT22;9352;50.888;4.466;2023-04-03T08:15:26;6.00;99.90
18446;DHT22;9352;50.888;4.466;2023-04-03T08:17:54;6.10;99.90
18446;DHT22;9352;50.888;4.466;2023-04-03T08:20:21;6.20;99.90
18446;DHT22;9352;50.888;4.466;2023-04-03T08:22:48;6.20;99.90
18446;DHT22;9352;50.888;4.466;2023-04-03T08:25:16;6.30;99.90
18446;DHT22;9352;50.888;4.466;2023-04-03T08:27:44;6.50;99.90
18446;DHT22;9352;50.888;4.466;2023-04-03T08:30:12;6.60;99.90
18446;DHT22;9352;50.888;4.466;2023-04-03T08:32:39;6.60;99.90
18446;DHT22;9352;50.888;4.466;2023-04-03T08:35:08;6.70;99.90
18446;DHT22;9352;50.888;4.466;2023-04-03T08:37:36;6.90;99.90
18446;DHT22;9352;50.888;4.466;2023-04-03T08:40:03;7.10;99.90
18446;DHT22;9352;50.888;4.466;2023-04-03T08:42:41;7.20;99.90
18446;DHT22;9352;50.888;4.466;2023-04-03T08:45:13;7.30;99.90
18446;DHT22;9352;50.888;4.466;2023-04-03T08:47:47;7.30;99.90
18446;DHT22;9352;50.888;4.466;2023-04-03T08:50:19;7.40;99.90
18446;DHT22;9352;50.888;4.466;2023-04-03T08:52:49;7.50;99.90
18446;DHT22;9352;50.888;4.466;2023-04-03T08:55:23;7.50;99.90
18446;DHT22;9352;50.888;4.466;2023-04-03T08:57:58;7.60;99.90
18446;DHT22;9352;50.888;4.466;2023-04-03T09:00:29;7.60;99.90
18446;DHT22;9352;50.888;4.466;2023-04-03T09:02:57;7.60;99.90
18446;DHT22;9352;50.888;4.466;2023-04-03T09:05:38;7.80;99.90
18446;DHT22;9352;50.888;4.466;2023-04-03T09:08:12;7.90;99.90
18446;DHT22;9352;50.888;4.466;2023-04-03T09:10:41;8.20;99.90
18446;DHT22;9352;50.888;4.466;2023-04-03T09:13:17;8.80;99.90
18446;DHT22;9352;50.888;4.466;2023-04-03T09:15:46;9.60;99.90
18446;DHT22;9352;50.888;4.466;2023-04-03T09:18:17;10.40;99.90
18446;DHT22;9352;50.888;4.466;2023-04-03T09:20:53;11.10;99.90
18446;DHT22;9352;50.888;4.466;2023-04-03T09:23:27;11.80;99.90
18446;DHT22;9352;50.888;4.466;2023-04-03T09:26:00;12.40;99.90
18446;DHT22;9352;50.888;4.466;2023-04-03T09:28:34;12.70;99.90
18446;DHT22;9352;50.888;4.466;2023-04-03T09:31:05;13.20;99.90
18446;DHT22;9352;50.888;4.466;2023-04-03T09:33:40;13.60;99.90
18446;DHT22;9352;50.888;4.466;2023-04-03T09:36:07;13.80;99.90
18446;DHT22;9352;50.888;4.466;2023-04-03T09:38:34;14.00;99.90
18446;DHT22;9352;50.888;4.466;2023-04-03T09:41:06;14.50;99.90
18446;DHT22;9352;50.888;4.466;2023-04-03T09:43:37;14.50;99.90
18446;DHT22;9352;50.888;4.466;2023-04-03T09:46:24;14.60;99.90
18446;DHT22;9352;50.888;4.466;2023-04-03T09:48:55;14.90;99.90
18446;DHT22;9352;50.888;4.466;2023-04-03T09:51:25;15.10;99.90
18446;DHT22;9352;50.888;4.466;2023-04-03T09:53:53;15.10;99.90
18446;DHT22;9352;50.888;4.466;2023-04-03T09:56:22;15.40;99.90
18446;DHT22;9352;50.888;4.466;2023-04-03T09:59:07;15.60;99.90
18446;DHT22;9352;50.888;4.466;2023-04-03T10:01:37;15.90;99.90
18446;DHT22;9352;50.888;4.466;2023-04-03T10:04:09;16.10;99.90
18446;DHT22;9352;50.888;4.466;2023-04-03T10:06:39;16.30;99.90
18446;DHT22;9352;50.888;4.466;2023-04-03T10:09:18;16.60;99.90
18446;DHT22;9352;50.888;4.466;2023-04-03T10:12:04;17.20;99.90
18446;DHT22;9352;50.888;4.466;2023-04-03T10:14:34;17.50;99.90
18446;DHT22;9352;50.888;4.466;2023-04-03T10:17:13;17.50;99.90
18446;DHT22;9352;50.888;4.466;2023-04-03T10:19:44;17.30;99.90
18446;DHT22;9352;50.888;4.466;2023-04-03T10:22:31;17.80;99.90
18446;DHT22;9352;50.888;4.466;2023-04-03T10:25:10;17.80;99.90
18446;DHT22;9352;50.888;4.466;2023-04-03T10:27:47;17.80;99.90
18446;DHT22;9352;50.888;4.466;2023-04-03T10:30:28;17.80;99.90
18446;DHT22;9352;50.888;4.466;2023-04-03T10:33:09;17.80;99.90
18446;DHT22;9352;50.888;4.466;2023-04-03T10:35:44;18.00;99.90
18446;DHT22;9352;50.888;4.466;2023-04-03T10:38:20;18.00;99.90
18446;DHT22;9352;50.888;4.466;2023-04-03T10:40:55;18.10;99.90
18446;DHT22;9352;50.888;4.466;2023-04-03T10:43:29;18.60;99.90
18446;DHT22;9352;50.888;4.466;2023-04-03T10:46:04;18.70;95.10
18446;DHT22;9352;50.888;4.466;2023-04-03T10:48:44;18.60;93.70
18446;DHT22;9352;50.888;4.466;2023-04-03T10:51:24;18.60;92.40
18446;DHT22;9352;50.888;4.466;2023-04-03T10:53:56;19.00;93.70
18446;DHT22;9352;50.888;4.466;2023-04-03T10:56:31;19.00;93.20
18446;DHT22;9352;50.888;4.466;2023-04-03T10:59:02;18.70;91.90
18446;DHT22;9352;50.888;4.466;2023-04-03T11:01:37;18.90;91.00
18446;DHT22;9352;50.888;4.466;2023-04-03T11:04:06;18.70;91.80
18446;DHT22;9352;50.888;4.466;2023-04-03T11:06:37;18.70;94.90
18446;DHT22;9352;50.888;4.466;2023-04-03T11:09:15;18.90;94.60
18446;DHT22;9352;50.888;4.466;2023-04-03T11:11:44;19.00;94.80
18446;DHT22;9352;50.888;4.466;2023-04-03T11:14:18;19.00;94.90
18446;DHT22;9352;50.888;4.466;2023-04-03T11:16:57;19.00;94.80
18446;DHT22;9352;50.888;4.466;2023-04-03T11:19:34;19.70;93.70
18446;DHT22;9352;50.888;4.466;2023-04-03T11:22:05;19.60;92.30
18446;DHT22;9352;50.888;4.466;2023-04-03T11:24:37;19.50;91.60
18446;DHT22;9352;50.888;4.466;2023-04-03T11:27:08;19.10;91.10
18446;DHT22;9352;50.888;4.466;2023-04-03T11:29:43;19.50;90.90
18446;DHT22;9352;50.888;4.466;2023-04-03T11:32:27;19.70;88.60
18446;DHT22;9352;50.888;4.466;2023-04-03T11:35:00;19.60;85.40
18446;DHT22;9352;50.888;4.466;2023-04-03T11:37:33;19.70;84.80
18446;DHT22;9352;50.888;4.466;2023-04-03T11:40:04;19.90;84.90
18446;DHT22;9352;50.888;4.466;2023-04-03T11:42:37;20.00;84.10
18446;DHT22;9352;50.888;4.466;2023-04-03T11:45:27;20.30;85.40
18446;DHT22;9352;50.888;4.466;2023-04-03T11:47:59;20.30;88.30
18446;DHT22;9352;50.888;4.466;2023-04-03T11:50:41;20.20;87.00
18446;DHT22;9352;50.888;4.466;2023-04-03T11:53:31;20.60;86.70
18446;DHT22;9352;50.888;4.466;2023-04-03T11:56:30;20.70;84.50
18446;DHT22;9352;50.888;4.466;2023-04-03T11:59:22;21.00;84.60
18446;DHT22;9352;50.888;4.466;2023-04-03T12:01:50;21.10;83.10
18446;DHT22;9352;50.888;4.466;2023-04-03T12:04:21;21.20;76.70
18446;DHT22;9352;50.888;4.466;2023-04-03T12:09:56;21.40;72.00
18446;DHT22;9352;50.888;4.466;2023-04-03T12:12:57;21.20;67.50
18446;DHT22;9352;50.888;4.466;2023-04-03T12:15:54;21.20;70.20
18446;DHT22;9352;50.888;4.466;2023-04-03T12:18:56;21.70;66.70
18446;DHT22;9352;50.888;4.466;2023-04-03T12:22:05;21.90;64.30
18446;DHT22;9352;50.888;4.466;2023-04-03T12:24:34;22.20;64.80
18446;DHT22;9352;50.888;4.466;2023-04-03T12:27:05;22.20;64.60
18446;DHT22;9352;50.888;4.466;2023-04-03T12:29:36;22.50;63.60
18446;DHT22;9352;50.888;4.466;2023-04-03T12:32:13;22.60;63.50
18446;DHT22;9352;50.888;4.466;2023-04-03T12:34:55;22.70;60.70
18446;DHT22;9352;50.888;4.466;2023-04-03T12:37:40;22.70;59.70
18446;DHT22;9352;50.888;4.466;2023-04-03T12:40:16;22.40;59.80
18446;DHT22;9352;50.888;4.466;2023-04-03T12:45:58;22.60;57.80
18446;DHT22;9352;50.888;4.466;2023-04-03T12:48:28;22.80;57.30
18446;DHT22;9352;50.888;4.466;2023-04-03T12:50:57;22.80;59.10
18446;DHT22;9352;50.888;4.466;2023-04-03T12:53:28;22.80;58.50
18446;DHT22;9352;50.888;4.466;2023-04-03T12:55:57;23.10;57.40
18446;DHT22;9352;50.888;4.466;2023-04-03T12:58:25;23.70;57.70
18446;DHT22;9352;50.888;4.466;2023-04-03T13:01:00;23.90;56.50
18446;DHT22;9352;50.888;4.466;2023-04-03T13:03:29;24.30;54.60
18446;DHT22;9352;50.888;4.466;2023-04-03T13:05:59;24.20;53.10
18446;DHT22;9352;50.888;4.466;2023-04-03T13:08:29;24.60;52.50
18446;DHT22;9352;50.888;4.466;2023-04-03T13:11:00;25.00;51.80
18446;DHT22;9352;50.888;4.466;2023-04-03T13:13:28;25.20;52.40
18446;DHT22;9352;50.888;4.466;2023-04-03T13:15:56;25.10;52.00
18446;DHT22;9352;50.888;4.466;2023-04-03T13:18:29;25.30;51.80
18446;DHT22;9352;50.888;4.466;2023-04-03T13:21:00;25.60;50.20
18446;DHT22;9352;50.888;4.466;2023-04-03T13:23:30;25.40;49.50
18446;DHT22;9352;50.888;4.466;2023-04-03T13:25:59;25.60;48.60
18446;DHT22;9352;50.888;4.466;2023-04-03T13:28:30;25.50;48.40
18446;DHT22;9352;50.888;4.466;2023-04-03T13:31:05;25.70;48.90
18446;DHT22;9352;50.888;4.466;2023-04-03T13:33:35;25.50;49.60
18446;DHT22;9352;50.888;4.466;2023-04-03T13:36:06;26.20;50.10
18446;DHT22;9352;50.888;4.466;2023-04-03T13:38:35;26.40;48.70
18446;DHT22;9352;50.888;4.466;2023-04-03T13:41:05;26.30;48.60
18446;DHT22;9352;50.888;4.466;2023-04-03T13:43:47;26.10;48.10
18446;DHT22;9352;50.888;4.466;2023-04-03T13:46:24;26.30;48.10
18446;DHT22;9352;50.888;4.466;2023-04-03T13:48:53;26.30;48.40
18446;DHT22;9352;50.888;4.466;2023-04-03T13:51:23;26.70;48.50
18446;DHT22;9352;50.888;4.466;2023-04-03T13:53:54;26.40;48.00
18446;DHT22;9352;50.888;4.466;2023-04-03T13:56:29;26.50;47.40
18446;DHT22;9352;50.888;4.466;2023-04-03T13:59:06;26.60;47.90
18446;DHT22;9352;50.888;4.466;2023-04-03T14:01:49;26.80;47.40
18446;DHT22;9352;50.888;4.466;2023-04-03T14:04:19;27.30;46.70
18446;DHT22;9352;50.888;4.466;2023-04-03T14:06:47;27.10;45.70
18446;DHT22;9352;50.888;4.466;2023-04-03T14:09:17;27.30;46.10
18446;DHT22;9352;50.888;4.466;2023-04-03T14:11:46;27.60;46.70
18446;DHT22;9352;50.888;4.466;2023-04-03T14:14:16;28.40;45.90
18446;DHT22;9352;50.888;4.466;2023-04-03T14:16:46;28.20;47.00
18446;DHT22;9352;50.888;4.466;2023-04-03T14:19:22;28.60;45.20
18446;DHT22;9352;50.888;4.466;2023-04-03T14:21:50;28.70;44.70
18446;DHT22;9352;50.888;4.466;2023-04-03T14:24:19;28.30;45.20
18446;DHT22;9352;50.888;4.466;2023-04-03T14:26:48;28.30;45.00
18446;DHT22;9352;50.888;4.466;2023-04-03T14:29:15;28.40;44.60
18446;DHT22;9352;50.888;4.466;2023-04-03T14:31:43;28.40;45.40
18446;DHT22;9352;50.888;4.466;2023-04-03T14:34:11;28.90;45.60
18446;DHT22;9352;50.888;4.466;2023-04-03T14:36:39;29.70;43.70
18446;DHT22;9352;50.888;4.466;2023-04-03T14:39:08;29.50;44.60
18446;DHT22;9352;50.888;4.466;2023-04-03T14:41:38;29.90;44.00
18446;DHT22;9352;50.888;4.466;2023-04-03T14:44:05;29.70;43.70
18446;DHT22;9352;50.888;4.466;2023-04-03T14:46:35;30.00;43.50
18446;DHT22;9352;50.888;4.466;2023-04-03T14:49:03;30.70;42.50
18446;DHT22;9352;50.888;4.466;2023-04-03T14:51:33;30.90;42.90
18446;DHT22;9352;50.888;4.466;2023-04-03T14:54:00;30.80;42.70
18446;DHT22;9352;50.888;4.466;2023-04-03T14:56:29;30.40;42.30
18446;DHT22;9352;50.888;4.466;2023-04-03T14:58:59;30.50;42.40
18446;DHT22;9352;50.888;4.466;2023-04-03T15:01:27;31.00;41.00
18446;DHT22;9352;50.888;4.466;2023-04-03T15:03:54;31.00;40.60
18446;DHT22;9352;50.888;4.466;2023-04-03T15:06:21;31.10;41.80
18446;DHT22;9352;50.888;4.466;2023-04-03T15:08:48;31.40;40.20
18446;DHT22;9352;50.888;4.466;2023-04-03T15:11:15;31.40;40.30
18446;DHT22;9352;50.888;4.466;2023-04-03T15:13:42;31.80;39.70
18446;DHT22;9352;50.888;4.466;2023-04-03T15:16:16;31.90;39.80
18446;DHT22;9352;50.888;4.466;2023-04-03T15:18:44;32.10;40.20
18446;DHT22;9352;50.888;4.466;2023-04-03T15:21:11;32.10;39.80
18446;DHT22;9352;50.888;4.466;2023-04-03T15:23:38;32.20;38.80
18446;DHT22;9352;50.888;4.466;2023-04-03T15:26:06;31.70;39.10
18446;DHT22;9352;50.888;4.466;2023-04-03T15:28:34;31.40;38.90
18446;DHT22;9352;50.888;4.466;2023-04-03T15:31:02;31.10;39.10
18446;DHT22;9352;50.888;4.466;2023-04-03T15:33:31;31.70;38.90
18446;DHT22;9352;50.888;4.466;2023-04-03T15:35:58;30.90;38.70
18446;DHT22;9352;50.888;4.466;2023-04-03T15:38:25;30.70;38.90
18446;DHT22;9352;50.888;4.466;2023-04-03T15:40:53;30.70;39.70
18446;DHT22;9352;50.888;4.466;2023-04-03T15:43:21;30.60;39.10
18446;DHT22;9352;50.888;4.466;2023-04-03T15:45:49;30.60;39.90
18446;DHT22;9352;50.888;4.466;2023-04-03T15:48:16;29.70;39.70
18446;DHT22;9352;50.888;4.466;2023-04-03T15:50:44;27.30;41.20
18446;DHT22;9352;50.888;4.466;2023-04-03T15:53:11;23.70;43.80
18446;DHT22;9352;50.888;4.466;2023-04-03T15:55:38;21.20;46.80
18446;DHT22;9352;50.888;4.466;2023-04-03T15:58:05;19.30;48.90
18446;DHT22;9352;50.888;4.466;2023-04-03T16:00:32;18.00;50.80
18446;DHT22;9352;50.888;4.466;2023-04-03T16:03:02;16.90;52.80
18446;DHT22;9352;50.888;4.466;2023-04-03T16:05:31;16.10;54.30
18446;DHT22;9352;50.888;4.466;2023-04-03T16:08:00;15.50;55.50
18446;DHT22;9352;50.888;4.466;2023-04-03T16:10:28;15.00;57.00
18446;DHT22;9352;50.888;4.466;2023-04-03T16:12:55;14.70;60.90
18446;DHT22;9352;50.888;4.466;2023-04-03T16:15:22;14.40;60.30
18446;DHT22;9352;50.888;4.466;2023-04-03T16:17:49;14.20;60.20